sensor_id;sensor_type;location;lat;lon;timestamp;pressure;altitude;pressure_sealevel;temperature
48854;BMP280;34673;52.808;17.856;2023-06-19T00:00:35;100324.81;;;16.45
48854;BMP280;34673;52.808;17.856;2023-06-19T00:03:03;100318.81;;;16.43
48854;BMP280;34673;52.808;17.856;2023-06-19T00:05:31;100325.84;;;16.40
48854;BMP280;34673;52.808;17.856;2023-06-19T00:07:58;100332.84;;;16.38
48854;BMP280;34673;52.808;17.856;2023-06-19T00:10:26;100329.44;;;16.36
48854;BMP280;34673;52.808;17.856;2023-06-19T00:12:53;100334.75;;;16.33
48854;BMP280;34673;52.808;17.856;2023-06-19T00:15:20;100334.88;;;16.30
48854;BMP280;34673;52.808;17.856;2023-06-19T00:17:48;100336.59;;;16.31
48854;BMP280;34673;52.808;17.856;2023-06-19T00:20:15;100334.88;;;16.30
48854;BMP280;34673;52.808;17.856;2023-06-19T00:22:42;100335.88;;;16.26
48854;BMP280;34673;52.808;17.856;2023-06-19T00:25:10;100336.06;;;16.20
48854;BMP280;34673;52.808;17.856;2023-06-19T00:27:37;100336.06;;;16.20
48854;BMP280;34673;52.808;17.856;2023-06-19T00:30:05;100339.53;;;16.21
48854;BMP280;34673;52.808;17.856;2023-06-19T00:32:33;100338.59;;;16.23
48854;BMP280;34673;52.808;17.856;2023-06-19T00:35:14;100325.47;;;16.25
48854;BMP280;34673;52.808;17.856;2023-06-19T00:37:42;100324.63;;;16.24
48854;BMP280;34673;52.808;17.856;2023-06-19T00:40:12;100326.31;;;16.25
48854;BMP280;34673;52.808;17.856;2023-06-19T00:42:41;100330.59;;;16.28
48854;BMP280;34673;52.808;17.856;2023-06-19T00:45:09;100326.31;;;16.25
48854;BMP280;34673;52.808;17.856;2023-06-19T00:47:37;100325.53;;;16.23
48854;BMP280;34673;52.808;17.856;2023-06-19T00:50:05;100322.06;;;16.23
48854;BMP280;34673;52.808;17.856;2023-06-19T00:52:33;100315.97;;;16.22
48854;BMP280;34673;52.808;17.856;2023-06-19T00:55:01;100317.78;;;16.20
48854;BMP280;34673;52.808;17.856;2023-06-19T00:57:30;100310.88;;;16.19
48854;BMP280;34673;52.808;17.856;2023-06-19T00:59:58;100308.41;;;16.14
48854;BMP280;34673;52.808;17.856;2023-06-19T01:02:26;100307.44;;;16.17
48854;BMP280;34673;52.808;17.856;2023-06-19T01:04:54;100301.28;;;16.20
48854;BMP280;34673;52.808;17.856;2023-06-19T01:07:33;100305.34;;;16.28
48854;BMP280;34673;52.808;17.856;2023-06-19T01:10:20;100305.34;;;16.28
48854;BMP280;34673;52.808;17.856;2023-06-19T01:13:00;100303.75;;;16.24
48854;BMP280;34673;52.808;17.856;2023-06-19T01:15:29;100302.84;;;16.25
48854;BMP280;34673;52.808;17.856;2023-06-19T01:17:57;100302.91;;;16.24
48854;BMP280;34673;52.808;17.856;2023-06-19T01:20:26;100289.13;;;16.18
48854;BMP280;34673;52.808;17.856;2023-06-19T01:22:53;100293.41;;;16.21
48854;BMP280;34673;52.808;17.856;2023-06-19T01:25:24;100286.66;;;16.14
48854;BMP280;34673;52.808;17.856;2023-06-19T01:27:51;100290.84;;;16.20
48854;BMP280;34673;52.808;17.856;2023-06-19T01:30:19;100287.41;;;16.17
48854;BMP280;34673;52.808;17.856;2023-06-19T01:35:43;100293.78;;;16.09
48854;BMP280;34673;52.808;17.856;2023-06-19T01:38:12;100301.63;;;16.09
48854;BMP280;34673;52.808;17.856;2023-06-19T01:40:40;100303.50;;;16.04
48854;BMP280;34673;52.808;17.856;2023-06-19T01:43:09;100302.81;;;15.99
48854;BMP280;34673;52.808;17.856;2023-06-19T01:45:37;100306.31;;;15.98
48854;BMP280;34673;52.808;17.856;2023-06-19T01:48:05;100294.34;;;15.90
48854;BMP280;34673;52.808;17.856;2023-06-19T01:50:32;100307.22;;;15.97
48854;BMP280;34673;52.808;17.856;2023-06-19T01:53:00;100309.84;;;15.97
48854;BMP280;34673;52.808;17.856;2023-06-19T01:55:27;100308.22;;;15.92
48854;BMP280;34673;52.808;17.856;2023-06-19T01:57:56;100315.31;;;15.87
48854;BMP280;34673;52.808;17.856;2023-06-19T02:00:24;100315.38;;;15.86
48854;BMP280;34673;52.808;17.856;2023-06-19T02:02:51;100309.38;;;15.82
48854;BMP280;34673;52.808;17.856;2023-06-19T02:05:19;100308.72;;;15.77
48854;BMP280;34673;52.808;17.856;2023-06-19T02:07:46;100302.56;;;15.78
48854;BMP280;34673;52.808;17.856;2023-06-19T02:10:15;100296.53;;;15.76
48854;BMP280;34673;52.808;17.856;2023-06-19T02:12:42;100303.50;;;15.77
48854;BMP280;34673;52.808;17.856;2023-06-19T02:15:10;100300.16;;;15.72
48854;BMP280;34673;52.808;17.856;2023-06-19T02:17:38;100301.84;;;15.73
48854;BMP280;34673;52.808;17.856;2023-06-19T02:20:06;100301.94;;;15.70
48854;BMP280;34673;52.808;17.856;2023-06-19T02:22:35;100309.84;;;15.67
48854;BMP280;34673;52.808;17.856;2023-06-19T02:25:03;100309.03;;;15.65
48854;BMP280;34673;52.808;17.856;2023-06-19T02:27:31;100300.47;;;15.60
48854;BMP280;34673;52.808;17.856;2023-06-19T02:29:59;100301.41;;;15.57
48854;BMP280;34673;52.808;17.856;2023-06-19T02:32:26;100304.09;;;15.56
48854;BMP280;34673;52.808;17.856;2023-06-19T02:34:54;100311.00;;;15.57
48854;BMP280;34673;52.808;17.856;2023-06-19T02:37:22;100309.31;;;15.56
48854;BMP280;34673;52.808;17.856;2023-06-19T02:39:49;100311.00;;;15.57
48854;BMP280;34673;52.808;17.856;2023-06-19T02:42:16;100305.69;;;15.60
48854;BMP280;34673;52.808;17.856;2023-06-19T02:44:43;100297.00;;;15.61
48854;BMP280;34673;52.808;17.856;2023-06-19T02:47:12;100305.59;;;15.63
48854;BMP280;34673;52.808;17.856;2023-06-19T02:49:40;100297.75;;;15.64
48854;BMP280;34673;52.808;17.856;2023-06-19T02:52:08;100300.28;;;15.66
48854;BMP280;34673;52.808;17.856;2023-06-19T02:54:35;100302.03;;;15.67
48854;BMP280;34673;52.808;17.856;2023-06-19T02:57:02;100301.94;;;15.70
48854;BMP280;34673;52.808;17.856;2023-06-19T02:59:30;100296.75;;;15.70
48854;BMP280;34673;52.808;17.856;2023-06-19T03:01:57;100301.09;;;15.69
48854;BMP280;34673;52.808;17.856;2023-06-19T03:04:24;100306.31;;;15.68
48854;BMP280;34673;52.808;17.856;2023-06-19T03:06:54;100300.28;;;15.66
48854;BMP280;34673;52.808;17.856;2023-06-19T03:09:22;100298.50;;;15.68
48854;BMP280;34673;52.808;17.856;2023-06-19T03:11:49;100296.63;;;15.73
48854;BMP280;34673;52.808;17.856;2023-06-19T03:14:17;100305.28;;;15.75
48854;BMP280;34673;52.808;17.856;2023-06-19T03:16:44;100288.94;;;15.68
48854;BMP280;34673;52.808;17.856;2023-06-19T03:19:12;100299.22;;;15.75
48854;BMP280;34673;52.808;17.856;2023-06-19T03:21:39;100299.97;;;15.78
48854;BMP280;34673;52.808;17.856;2023-06-19T03:24:07;100308.50;;;15.83
48854;BMP280;34673;52.808;17.856;2023-06-19T03:26:36;100303.09;;;15.89
48854;BMP280;34673;52.808;17.856;2023-06-19T03:29:03;100309.84;;;15.97
48854;BMP280;34673;52.808;17.856;2023-06-19T03:31:53;100307.94;;;16.02
48854;BMP280;34673;52.808;17.856;2023-06-19T03:34:25;100302.72;;;16.02
48854;BMP280;34673;52.808;17.856;2023-06-19T03:36:53;100320.72;;;16.09
48854;BMP280;34673;52.808;17.856;2023-06-19T03:39:22;100314.56;;;16.12
48854;BMP280;34673;52.808;17.856;2023-06-19T03:41:49;100319.72;;;16.15
48854;BMP280;34673;52.808;17.856;2023-06-19T03:44:17;100319.63;;;16.18
48854;BMP280;34673;52.808;17.856;2023-06-19T03:46:44;100315.97;;;16.22
48854;BMP280;34673;52.808;17.856;2023-06-19T03:49:12;100317.59;;;16.26
48854;BMP280;34673;52.808;17.856;2023-06-19T03:51:40;100313.88;;;16.33
48854;BMP280;34673;52.808;17.856;2023-06-19T03:54:07;100306.66;;;16.42
48854;BMP280;34673;52.808;17.856;2023-06-19T03:56:34;100311.59;;;16.51
48854;BMP280;34673;52.808;17.856;2023-06-19T03:59:02;100311.38;;;16.57
48854;BMP280;34673;52.808;17.856;2023-06-19T04:01:29;100314.59;;;16.65
48854;BMP280;34673;52.808;17.856;2023-06-19T04:03:57;100316.09;;;16.72
48854;BMP280;34673;52.808;17.856;2023-06-19T04:06:25;100306.38;;;16.76
48854;BMP280;34673;52.808;17.856;2023-06-19T04:08:52;100314.72;;;16.87
48854;BMP280;34673;52.808;17.856;2023-06-19T04:11:20;100309.34;;;16.92
48854;BMP280;34673;52.808;17.856;2023-06-19T04:13:47;100315.16;;;17.00
48854;BMP280;34673;52.808;17.856;2023-06-19T04:16:15;100315.78;;;17.06
48854;BMP280;34673;52.808;17.856;2023-06-19T04:18:42;100306.81;;;17.14
48854;BMP280;34673;52.808;17.856;2023-06-19T04:21:10;100310.97;;;17.19
48854;BMP280;34673;52.808;17.856;2023-06-19T04:23:38;100315.13;;;17.25
48854;BMP280;34673;52.808;17.856;2023-06-19T04:26:05;100312.25;;;17.33
48854;BMP280;34673;52.808;17.856;2023-06-19T04:28:32;100295.59;;;17.35
48854;BMP280;34673;52.808;17.856;2023-06-19T04:31:00;100308.44;;;17.41
48854;BMP280;34673;52.808;17.856;2023-06-19T04:33:28;100313.50;;;17.46
48854;BMP280;34673;52.808;17.856;2023-06-19T04:35:56;100313.25;;;17.52
48854;BMP280;34673;52.808;17.856;2023-06-19T04:38:24;100309.63;;;17.56
48854;BMP280;34673;52.808;17.856;2023-06-19T04:40:51;100317.81;;;17.70
48854;BMP280;34673;52.808;17.856;2023-06-19T04:43:19;100321.88;;;17.78
48854;BMP280;34673;52.808;17.856;2023-06-19T04:45:46;100321.69;;;17.84
48854;BMP280;34673;52.808;17.856;2023-06-19T04:48:14;100311.16;;;17.85
48854;BMP280;34673;52.808;17.856;2023-06-19T04:50:41;100327.34;;;17.95
48854;BMP280;34673;52.808;17.856;2023-06-19T04:53:08;100313.22;;;17.99
48854;BMP280;34673;52.808;17.856;2023-06-19T04:55:36;100322.50;;;18.08
48854;BMP280;34673;52.808;17.856;2023-06-19T04:58:04;100317.13;;;18.11
48854;BMP280;34673;52.808;17.856;2023-06-19T05:00:31;100325.47;;;18.21
48854;BMP280;34673;52.808;17.856;2023-06-19T05:02:59;100324.44;;;18.25
48854;BMP280;34673;52.808;17.856;2023-06-19T05:05:28;100325.09;;;18.30
48854;BMP280;34673;52.808;17.856;2023-06-19T05:07:55;100335.31;;;18.36
48854;BMP280;34673;52.808;17.856;2023-06-19T05:10:23;100334.19;;;18.43
48854;BMP280;34673;52.808;17.856;2023-06-19T05:12:51;100337.44;;;18.48
48854;BMP280;34673;52.808;17.856;2023-06-19T05:15:18;100328.53;;;18.52
48854;BMP280;34673;52.808;17.856;2023-06-19T05:17:46;100328.28;;;18.58
48854;BMP280;34673;52.808;17.856;2023-06-19T05:20:13;100329.78;;;18.64
48854;BMP280;34673;52.808;17.856;2023-06-19T05:22:41;100329.47;;;18.72
48854;BMP280;34673;52.808;17.856;2023-06-19T05:25:08;100333.63;;;18.77
48854;BMP280;34673;52.808;17.856;2023-06-19T05:27:36;100329.00;;;18.84
48854;BMP280;34673;52.808;17.856;2023-06-19T05:30:04;100337.38;;;18.92
48854;BMP280;34673;52.808;17.856;2023-06-19T05:32:32;100329.53;;;18.92
48854;BMP280;34673;52.808;17.856;2023-06-19T05:35:00;100331.03;;;18.98
48854;BMP280;34673;52.808;17.856;2023-06-19T05:37:27;100333.19;;;19.09
48854;BMP280;34673;52.808;17.856;2023-06-19T05:39:54;100337.31;;;19.14
48854;BMP280;34673;52.808;17.856;2023-06-19T05:42:22;100343.25;;;19.18
48854;BMP280;34673;52.808;17.856;2023-06-19T05:44:49;100348.09;;;19.27
48854;BMP280;34673;52.808;17.856;2023-06-19T05:47:16;100339.19;;;19.31
48854;BMP280;34673;52.808;17.856;2023-06-19T05:49:47;100341.19;;;19.45
48854;BMP280;34673;52.808;17.856;2023-06-19T05:52:14;100347.03;;;19.52
48854;BMP280;34673;52.808;17.856;2023-06-19T05:54:41;100347.53;;;19.60
48854;BMP280;34673;52.808;17.856;2023-06-19T05:57:09;100342.72;;;19.69
48854;BMP280;34673;52.808;17.856;2023-06-19T05:59:36;100344.06;;;19.78
48854;BMP280;34673;52.808;17.856;2023-06-19T06:02:04;100344.50;;;19.88
48854;BMP280;34673;52.808;17.856;2023-06-19T06:04:32;100349.25;;;19.99
48854;BMP280;34673;52.808;17.856;2023-06-19T06:07:00;100346.16;;;20.08
48854;BMP280;34673;52.808;17.856;2023-06-19T06:09:28;100350.84;;;20.20
48854;BMP280;34673;52.808;17.856;2023-06-19T06:11:55;100348.56;;;20.31
48854;BMP280;34673;52.808;17.856;2023-06-19T06:14:23;100358.44;;;20.44
48854;BMP280;34673;52.808;17.856;2023-06-19T06:16:50;100359.56;;;20.57
48854;BMP280;34673;52.808;17.856;2023-06-19T06:19:20;100351.16;;;20.68
48854;BMP280;34673;52.808;17.856;2023-06-19T06:21:49;100358.22;;;20.85
48854;BMP280;34673;52.808;17.856;2023-06-19T06:24:18;100359.28;;;20.98
48854;BMP280;34673;52.808;17.856;2023-06-19T06:26:45;100362.22;;;21.09
48854;BMP280;34673;52.808;17.856;2023-06-19T06:29:12;100372.72;;;21.27
48854;BMP280;34673;52.808;17.856;2023-06-19T06:31:40;100367.59;;;21.41
48854;BMP280;34673;52.808;17.856;2023-06-19T06:34:08;100377.16;;;21.59
48854;BMP280;34673;52.808;17.856;2023-06-19T06:36:36;100372.59;;;21.79
48854;BMP280;34673;52.808;17.856;2023-06-19T06:39:12;100371.41;;;22.00
48854;BMP280;34673;52.808;17.856;2023-06-19T06:41:39;100380.13;;;22.18
48854;BMP280;34673;52.808;17.856;2023-06-19T06:44:11;100380.25;;;22.31
48854;BMP280;34673;52.808;17.856;2023-06-19T06:46:38;100373.28;;;22.46
48854;BMP280;34673;52.808;17.856;2023-06-19T06:49:06;100371.38;;;22.64
48854;BMP280;34673;52.808;17.856;2023-06-19T06:51:33;100368.41;;;22.84
48854;BMP280;34673;52.808;17.856;2023-06-19T06:54:00;100367.56;;;22.99
48854;BMP280;34673;52.808;17.856;2023-06-19T06:56:28;100376.03;;;23.05
48854;BMP280;34673;52.808;17.856;2023-06-19T06:58:56;100377.94;;;23.17
48854;BMP280;34673;52.808;17.856;2023-06-19T07:01:23;100376.25;;;23.30
48854;BMP280;34673;52.808;17.856;2023-06-19T07:03:51;100375.13;;;23.49
48854;BMP280;34673;52.808;17.856;2023-06-19T07:06:18;100382.84;;;23.66
48854;BMP280;34673;52.808;17.856;2023-06-19T07:08:45;100377.78;;;23.77
48854;BMP280;34673;52.808;17.856;2023-06-19T07:11:14;100379.25;;;23.96
48854;BMP280;34673;52.808;17.856;2023-06-19T07:13:42;100383.78;;;24.08
48854;BMP280;34673;52.808;17.856;2023-06-19T07:16:09;100383.44;;;24.27
48854;BMP280;34673;52.808;17.856;2023-06-19T07:18:37;100376.13;;;24.45
48854;BMP280;34673;52.808;17.856;2023-06-19T07:21:09;100382.31;;;24.58
48854;BMP280;34673;52.808;17.856;2023-06-19T07:23:42;100395.34;;;24.74
48854;BMP280;34673;52.808;17.856;2023-06-19T07:26:10;100388.50;;;24.84
48854;BMP280;34673;52.808;17.856;2023-06-19T07:28:37;100392.13;;;24.96
48854;BMP280;34673;52.808;17.856;2023-06-19T07:31:05;100392.97;;;25.09
48854;BMP280;34673;52.808;17.856;2023-06-19T07:33:33;100395.34;;;25.27
48854;BMP280;34673;52.808;17.856;2023-06-19T07:36:02;100394.72;;;25.36
48854;BMP280;34673;52.808;17.856;2023-06-19T07:38:29;100394.06;;;25.45
48854;BMP280;34673;52.808;17.856;2023-06-19T07:40:57;100382.84;;;25.54
48854;BMP280;34673;52.808;17.856;2023-06-19T07:43:25;100388.03;;;25.69
48854;BMP280;34673;52.808;17.856;2023-06-19T07:45:52;100391.50;;;25.82
48854;BMP280;34673;52.808;17.856;2023-06-19T07:48:19;100383.94;;;26.01
48854;BMP280;34673;52.808;17.856;2023-06-19T07:50:47;100378.91;;;26.22
48854;BMP280;34673;52.808;17.856;2023-06-19T07:53:14;100380.75;;;26.33
48854;BMP280;34673;52.808;17.856;2023-06-19T07:55:42;100386.44;;;26.40
48854;BMP280;34673;52.808;17.856;2023-06-19T07:58:09;100389.38;;;26.48
48854;BMP280;34673;52.808;17.856;2023-06-19T08:00:37;100383.31;;;26.59
48854;BMP280;34673;52.808;17.856;2023-06-19T08:03:04;100386.75;;;26.72
48854;BMP280;34673;52.808;17.856;2023-06-19T08:05:32;100387.75;;;26.82
48854;BMP280;34673;52.808;17.856;2023-06-19T08:08:00;100382.56;;;26.92
48854;BMP280;34673;52.808;17.856;2023-06-19T08:10:28;100380.06;;;27.02
48854;BMP280;34673;52.808;17.856;2023-06-19T08:12:56;100392.63;;;27.11
48854;BMP280;34673;52.808;17.856;2023-06-19T08:15:23;100387.94;;;27.14
48854;BMP280;34673;52.808;17.856;2023-06-19T08:17:51;100389.81;;;27.25
48854;BMP280;34673;52.808;17.856;2023-06-19T08:20:20;100387.16;;;27.36
48854;BMP280;34673;52.808;17.856;2023-06-19T08:22:48;100375.56;;;27.49
48854;BMP280;34673;52.808;17.856;2023-06-19T08:25:15;100375.19;;;27.65
48854;BMP280;34673;52.808;17.856;2023-06-19T08:27:43;100378.66;;;27.76
48854;BMP280;34673;52.808;17.856;2023-06-19T08:30:12;100375.81;;;27.91
48854;BMP280;34673;52.808;17.856;2023-06-19T08:32:39;100382.31;;;27.98
48854;BMP280;34673;52.808;17.856;2023-06-19T08:35:07;100378.31;;;28.03
48854;BMP280;34673;52.808;17.856;2023-06-19T08:37:35;100379.38;;;28.12
48854;BMP280;34673;52.808;17.856;2023-06-19T08:40:03;100380.06;;;28.25
48854;BMP280;34673;52.808;17.856;2023-06-19T08:42:33;100393.09;;;28.40
48854;BMP280;34673;52.808;17.856;2023-06-19T08:45:01;100388.47;;;28.53
48854;BMP280;34673;52.808;17.856;2023-06-19T08:47:30;100391.34;;;28.61
48854;BMP280;34673;52.808;17.856;2023-06-19T08:49:58;100379.91;;;28.70
48854;BMP280;34673;52.808;17.856;2023-06-19T08:52:28;100387.84;;;28.82
48854;BMP280;34673;52.808;17.856;2023-06-19T08:54:56;100380.84;;;28.81
48854;BMP280;34673;52.808;17.856;2023-06-19T08:57:37;100382.50;;;28.82
48854;BMP280;34673;52.808;17.856;2023-06-19T09:00:05;100382.41;;;29.04
48854;BMP280;34673;52.808;17.856;2023-06-19T09:02:41;100373.25;;;29.18
48854;BMP280;34673;52.808;17.856;2023-06-19T09:05:16;100369.69;;;29.29
48854;BMP280;34673;52.808;17.856;2023-06-19T09:07:53;100374.19;;;29.38
48854;BMP280;34673;52.808;17.856;2023-06-19T09:10:21;100366.56;;;29.24
48854;BMP280;34673;52.808;17.856;2023-06-19T09:13:04;100375.38;;;29.03
48854;BMP280;34673;52.808;17.856;2023-06-19T09:15:33;100375.50;;;28.81
48854;BMP280;34673;52.808;17.856;2023-06-19T09:18:09;100367.88;;;28.55
48854;BMP280;34673;52.808;17.856;2023-06-19T09:20:41;100369.91;;;28.19
48854;BMP280;34673;52.808;17.856;2023-06-19T09:23:12;100366.09;;;28.01
48854;BMP280;34673;52.808;17.856;2023-06-19T09:25:52;100371.13;;;28.26
48854;BMP280;34673;52.808;17.856;2023-06-19T09:28:23;100370.88;;;28.62
48854;BMP280;34673;52.808;17.856;2023-06-19T09:31:03;100362.78;;;28.84
48854;BMP280;34673;52.808;17.856;2023-06-19T09:33:33;100364.47;;;29.06
48854;BMP280;34673;52.808;17.856;2023-06-19T09:36:03;100365.00;;;28.58
48854;BMP280;34673;52.808;17.856;2023-06-19T09:38:36;100364.28;;;28.13
48854;BMP280;34673;52.808;17.856;2023-06-19T09:41:07;100358.78;;;28.25
48854;BMP280;34673;52.808;17.856;2023-06-19T09:43:46;100364.91;;;28.48
48854;BMP280;34673;52.808;17.856;2023-06-19T09:46:16;100358.34;;;28.73
48854;BMP280;34673;52.808;17.856;2023-06-19T09:48:45;100349.00;;;29.00
48854;BMP280;34673;52.808;17.856;2023-06-19T09:51:17;100357.03;;;29.31
48854;BMP280;34673;52.808;17.856;2023-06-19T09:53:46;100358.19;;;29.38
48854;BMP280;34673;52.808;17.856;2023-06-19T09:56:15;100360.69;;;29.30
48854;BMP280;34673;52.808;17.856;2023-06-19T09:58:43;100356.94;;;29.11
48854;BMP280;34673;52.808;17.856;2023-06-19T10:01:12;100352.88;;;28.96
48854;BMP280;34673;52.808;17.856;2023-06-19T10:03:40;100362.66;;;28.86
48854;BMP280;34673;52.808;17.856;2023-06-19T10:06:13;100355.28;;;29.10
48854;BMP280;34673;52.808;17.856;2023-06-19T10:08:44;100357.09;;;29.41
48854;BMP280;34673;52.808;17.856;2023-06-19T10:11:12;100359.47;;;29.65
48854;BMP280;34673;52.808;17.856;2023-06-19T10:13:41;100358.41;;;29.87
48854;BMP280;34673;52.808;17.856;2023-06-19T10:16:19;100356.16;;;30.01
48854;BMP280;34673;52.808;17.856;2023-06-19T10:18:48;100357.31;;;30.09
48854;BMP280;34673;52.808;17.856;2023-06-19T10:21:17;100354.78;;;30.07
48854;BMP280;34673;52.808;17.856;2023-06-19T10:23:56;100352.31;;;30.25
48854;BMP280;34673;52.808;17.856;2023-06-19T10:26:34;100342.34;;;30.46
48854;BMP280;34673;52.808;17.856;2023-06-19T10:29:12;100343.97;;;30.09
48854;BMP280;34673;52.808;17.856;2023-06-19T10:31:40;100357.00;;;29.52
48854;BMP280;34673;52.808;17.856;2023-06-19T10:34:07;100361.59;;;29.40
48854;BMP280;34673;52.808;17.856;2023-06-19T10:36:35;100354.38;;;29.62
48854;BMP280;34673;52.808;17.856;2023-06-19T10:39:03;100348.84;;;29.84
48854;BMP280;34673;52.808;17.856;2023-06-19T10:41:31;100354.50;;;30.00
48854;BMP280;34673;52.808;17.856;2023-06-19T10:44:04;100351.13;;;30.18
48854;BMP280;34673;52.808;17.856;2023-06-19T10:46:34;100356.72;;;29.95
48854;BMP280;34673;52.808;17.856;2023-06-19T10:49:06;100361.09;;;29.56
48854;BMP280;34673;52.808;17.856;2023-06-19T10:51:36;100362.19;;;29.23
48854;BMP280;34673;52.808;17.856;2023-06-19T10:54:04;100350.56;;;28.82
48854;BMP280;34673;52.808;17.856;2023-06-19T10:56:32;100353.03;;;28.41
48854;BMP280;34673;52.808;17.856;2023-06-19T10:59:07;100349.06;;;27.92
48854;BMP280;34673;52.808;17.856;2023-06-19T11:01:43;100363.47;;;27.90
48854;BMP280;34673;52.808;17.856;2023-06-19T11:04:13;100349.59;;;28.29
48854;BMP280;34673;52.808;17.856;2023-06-19T11:06:42;100346.03;;;28.72
48854;BMP280;34673;52.808;17.856;2023-06-19T11:09:11;100348.16;;;29.00
48854;BMP280;34673;52.808;17.856;2023-06-19T11:11:44;100348.94;;;29.11
48854;BMP280;34673;52.808;17.856;2023-06-19T11:14:13;100351.97;;;29.28
48854;BMP280;34673;52.808;17.856;2023-06-19T11:16:44;100344.22;;;29.46
48854;BMP280;34673;52.808;17.856;2023-06-19T11:19:20;100341.72;;;29.54
48854;BMP280;34673;52.808;17.856;2023-06-19T11:21:49;100332.25;;;29.71
48854;BMP280;34673;52.808;17.856;2023-06-19T11:24:18;100340.13;;;29.82
48854;BMP280;34673;52.808;17.856;2023-06-19T11:26:50;100342.56;;;29.54
48854;BMP280;34673;52.808;17.856;2023-06-19T11:31:48;100345.69;;;28.87
48854;BMP280;34673;52.808;17.856;2023-06-19T11:34:17;100350.97;;;28.56
48854;BMP280;34673;52.808;17.856;2023-06-19T11:36:50;100347.31;;;28.57
48854;BMP280;34673;52.808;17.856;2023-06-19T11:39:18;100344.47;;;28.91
48854;BMP280;34673;52.808;17.856;2023-06-19T11:41:46;100334.31;;;29.27
48854;BMP280;34673;52.808;17.856;2023-06-19T11:44:14;100336.94;;;29.48
48854;BMP280;34673;52.808;17.856;2023-06-19T11:46:42;100332.53;;;29.68
48854;BMP280;34673;52.808;17.856;2023-06-19T11:49:14;100330.63;;;29.89
48854;BMP280;34673;52.808;17.856;2023-06-19T11:51:41;100326.13;;;30.09
48854;BMP280;34673;52.808;17.856;2023-06-19T11:54:12;100321.97;;;30.26
48854;BMP280;34673;52.808;17.856;2023-06-19T11:56:41;100319.44;;;30.34
48854;BMP280;34673;52.808;17.856;2023-06-19T11:59:09;100326.72;;;30.42
48854;BMP280;34673;52.808;17.856;2023-06-19T12:01:37;100326.69;;;30.13
48854;BMP280;34673;52.808;17.856;2023-06-19T12:04:06;100325.25;;;29.70
48854;BMP280;34673;52.808;17.856;2023-06-19T12:06:34;100331.38;;;29.30
48854;BMP280;34673;52.808;17.856;2023-06-19T12:09:02;100334.22;;;29.07
48854;BMP280;34673;52.808;17.856;2023-06-19T12:11:31;100332.25;;;29.09
48854;BMP280;34673;52.808;17.856;2023-06-19T12:13:59;100333.28;;;28.97
48854;BMP280;34673;52.808;17.856;2023-06-19T12:16:27;100324.75;;;28.72
48854;BMP280;34673;52.808;17.856;2023-06-19T12:18:55;100326.94;;;28.67
48854;BMP280;34673;52.808;17.856;2023-06-19T12:21:30;100323.75;;;28.53
48854;BMP280;34673;52.808;17.856;2023-06-19T12:24:09;100321.75;;;28.34
48854;BMP280;34673;52.808;17.856;2023-06-19T12:26:38;100318.66;;;28.17
48854;BMP280;34673;52.808;17.856;2023-06-19T12:29:09;100314.53;;;28.24
48854;BMP280;34673;52.808;17.856;2023-06-19T12:31:37;100322.91;;;28.52
48854;BMP280;34673;52.808;17.856;2023-06-19T12:34:04;100310.19;;;28.77
48854;BMP280;34673;52.808;17.856;2023-06-19T12:36:37;100308.59;;;28.95
48854;BMP280;34673;52.808;17.856;2023-06-19T12:39:04;100316.00;;;29.12
48854;BMP280;34673;52.808;17.856;2023-06-19T12:41:40;100306.25;;;29.23
48854;BMP280;34673;52.808;17.856;2023-06-19T12:44:07;100307.53;;;29.28
48854;BMP280;34673;52.808;17.856;2023-06-19T12:46:34;100316.94;;;29.32
48854;BMP280;34673;52.808;17.856;2023-06-19T12:49:01;100309.34;;;29.28
48854;BMP280;34673;52.808;17.856;2023-06-19T12:51:28;100307.94;;;29.24
48854;BMP280;34673;52.808;17.856;2023-06-19T12:53:55;100306.03;;;29.35
48854;BMP280;34673;52.808;17.856;2023-06-19T12:56:23;100311.13;;;29.48
48854;BMP280;34673;52.808;17.856;2023-06-19T12:58:50;100303.28;;;29.56
48854;BMP280;34673;52.808;17.856;2023-06-19T13:01:17;100291.81;;;29.66
48854;BMP280;34673;52.808;17.856;2023-06-19T13:03:44;100304.31;;;29.75
48854;BMP280;34673;52.808;17.856;2023-06-19T13:06:11;100301.69;;;29.85
48854;BMP280;34673;52.808;17.856;2023-06-19T13:08:39;100296.91;;;29.88
48854;BMP280;34673;52.808;17.856;2023-06-19T13:11:06;100299.16;;;29.73
48854;BMP280;34673;52.808;17.856;2023-06-19T13:13:33;100300.25;;;29.71
48854;BMP280;34673;52.808;17.856;2023-06-19T13:16:00;100299.97;;;29.74
48854;BMP280;34673;52.808;17.856;2023-06-19T13:18:27;100296.88;;;29.69
48854;BMP280;34673;52.808;17.856;2023-06-19T13:20:54;100297.41;;;29.63
48854;BMP280;34673;52.808;17.856;2023-06-19T13:23:21;100298.47;;;29.50
48854;BMP280;34673;52.808;17.856;2023-06-19T13:25:49;100300.75;;;29.45
48854;BMP280;34673;52.808;17.856;2023-06-19T13:28:16;100299.75;;;29.46
48854;BMP280;34673;52.808;17.856;2023-06-19T13:30:43;100291.75;;;29.46
48854;BMP280;34673;52.808;17.856;2023-06-19T13:33:10;100292.75;;;29.45
48854;BMP280;34673;52.808;17.856;2023-06-19T13:35:38;100289.66;;;29.50
48854;BMP280;34673;52.808;17.856;2023-06-19T13:38:05;100287.81;;;29.50
48854;BMP280;34673;52.808;17.856;2023-06-19T13:40:33;100285.88;;;29.52
48854;BMP280;34673;52.808;17.856;2023-06-19T13:43:00;100279.13;;;29.48
48854;BMP280;34673;52.808;17.856;2023-06-19T13:45:29;100273.66;;;29.40
48854;BMP280;34673;52.808;17.856;2023-06-19T13:47:57;100277.53;;;29.36
48854;BMP280;34673;52.808;17.856;2023-06-19T13:50:24;100277.94;;;29.31
48854;BMP280;34673;52.808;17.856;2023-06-19T13:52:52;100277.91;;;29.22
48854;BMP280;34673;52.808;17.856;2023-06-19T13:55:20;100275.09;;;29.13
48854;BMP280;34673;52.808;17.856;2023-06-19T13:57:47;100270.78;;;29.01